Time;durP1;ratioP1;P1;durP2;ratioP2;P2;SDS_P1;SDS_P2;PMS_P1;PMS_P2;Temp;Humidity;BMP_temperature;BMP_pressure;BME280_temperature;BME280_humidity;BME280_pressure;Samples;Min_cycle;Max_cycle;Signal;HPM_P1;HPM_P2
2023/08/12 00:00:53;;;;;;;3.17;1.27;;;;;;;22.64;49.37;99311.63;4843606;29;20602;-87
2023/08/12 00:03:20;;;;;;;4.17;1.30;;;;;;;22.61;49.69;99311.91;4843872;29;20189;-86
2023/08/12 00:05:45;;;;;;;4.80;1.40;;;;;;;22.59;49.91;99316.56;4843660;29;20216;-86
2023/08/12 00:08:11;;;;;;;2.83;1.37;;;;;;;22.72;49.78;99312.72;4842920;29;20253;-87
2023/08/12 00:10:38;;;;;;;2.60;1.10;;;;;;;22.81;49.12;99317.13;4827048;29;20236;-87
2023/08/12 00:13:04;;;;;;;4.17;1.50;;;;;;;22.85;49.19;99323.88;4827161;29;20199;-86
2023/08/12 00:15:31;;;;;;;2.23;1.20;;;;;;;22.79;49.44;99321.78;4827014;29;20197;-89
2023/08/12 00:17:56;;;;;;;3.20;1.13;;;;;;;22.85;49.50;99318.53;4816867;29;20185;-87
2023/08/12 00:20:22;;;;;;;3.30;1.50;;;;;;;22.90;49.57;99316.22;4831943;29;20192;-87
2023/08/12 00:22:48;;;;;;;2.30;1.57;;;;;;;22.97;49.57;99314.59;4824754;29;20268;-86
2023/08/12 00:25:14;;;;;;;2.53;1.30;;;;;;;23.07;49.24;99310.00;4835805;29;20185;-87
2023/08/12 00:27:41;;;;;;;3.03;1.20;;;;;;;23.10;49.04;99313.22;4841124;29;20292;-87
2023/08/12 00:30:10;;;;;;;4.30;1.47;;;;;;;23.10;49.61;99317.72;4842207;29;20598;-87
2023/08/12 00:32:36;;;;;;;4.57;1.60;;;;;;;22.92;50.51;99322.25;4824601;29;20201;-86
2023/08/12 00:35:02;;;;;;;3.80;1.80;;;;;;;22.84;50.36;99319.50;4837037;29;20268;-86
2023/08/12 00:37:29;;;;;;;4.73;1.70;;;;;;;22.82;50.25;99316.16;4842827;29;20181;-86
2023/08/12 00:39:56;;;;;;;3.53;1.90;;;;;;;22.75;50.90;99321.25;4843098;29;20241;-86
2023/08/12 00:42:23;;;;;;;6.30;1.97;;;;;;;22.73;50.54;99315.22;4826750;29;20185;-86
2023/08/12 00:44:49;;;;;;;2.60;1.30;;;;;;;22.67;50.60;99312.34;4842957;29;20249;-85
2023/08/12 00:47:16;;;;;;;5.83;1.73;;;;;;;22.59;51.27;99315.72;4842349;29;20694;-85
2023/08/12 00:49:45;;;;;;;4.00;1.50;;;;;;;22.57;50.76;99309.69;4826667;29;20189;-86
2023/08/12 00:52:14;;;;;;;3.30;1.37;;;;;;;22.44;51.54;99306.56;4842495;29;20221;-86
2023/08/12 00:54:41;;;;;;;4.77;1.70;;;;;;;22.38;51.14;99310.66;4842518;29;20264;-86
2023/08/12 00:57:08;;;;;;;3.37;1.60;;;;;;;22.40;51.03;99306.03;4842806;29;20253;-85
2023/08/12 00:59:37;;;;;;;3.43;1.60;;;;;;;22.42;50.71;99305.88;4842736;29;20220;-86
2023/08/12 01:02:04;;;;;;;4.17;1.70;;;;;;;22.33;50.81;99306.75;4842774;29;20181;-86
2023/08/12 01:04:31;;;;;;;4.33;1.60;;;;;;;22.24;51.57;99313.03;4842748;29;20260;-86
2023/08/12 01:06:56;;;;;;;3.00;1.70;;;;;;;22.09;52.27;99318.00;4842375;29;20216;-86
2023/08/12 01:09:23;;;;;;;2.50;1.27;;;;;;;22.01;52.46;99315.25;4842148;29;20594;-85
2023/08/12 01:12:04;;;;;;;5.00;1.50;;;;;;;21.99;52.17;99318.06;4827160;29;20344;-85
2023/08/12 01:14:49;;;;;;;4.10;1.30;;;;;;;22.00;52.09;99310.91;4842667;29;20203;-86
2023/08/12 01:17:17;;;;;;;3.97;1.40;;;;;;;21.91;52.48;99320.63;4842166;29;20262;-86
2023/08/12 01:19:46;;;;;;;3.07;1.63;;;;;;;21.85;52.92;99315.03;4842581;29;20224;-85
2023/08/12 01:22:12;;;;;;;3.37;1.83;;;;;;;21.84;53.33;99316.00;4842560;29;20275;-86
2023/08/12 01:24:43;;;;;;;2.73;1.37;;;;;;;21.86;53.34;99314.06;4842310;29;20177;-86
2023/08/12 01:27:10;;;;;;;2.50;1.37;;;;;;;21.90;52.94;99310.13;4824442;29;20221;-85
2023/08/12 01:29:49;;;;;;;2.83;1.40;;;;;;;22.02;52.85;99308.91;4841711;29;20243;-86
2023/08/12 01:32:24;;;;;;;2.13;1.23;;;;;;;22.14;52.36;99317.56;4842501;29;20177;-86
2023/08/12 01:35:05;;;;;;;3.00;1.43;;;;;;;22.26;51.73;99317.22;4826053;29;20192;-86
2023/08/12 01:37:33;;;;;;;2.73;1.60;;;;;;;22.33;51.42;99317.44;4842104;29;20608;-86
2023/08/12 01:40:05;;;;;;;4.13;1.30;;;;;;;22.39;51.49;99315.03;4842659;29;20221;-86
2023/08/12 01:42:35;;;;;;;2.63;1.37;;;;;;;22.48;51.23;99310.63;4842143;29;20585;-86
2023/08/12 01:45:02;;;;;;;5.50;1.60;;;;;;;22.50;51.15;99309.47;4825909;29;20204;-86
2023/08/12 01:47:30;;;;;;;2.10;1.40;;;;;;;22.55;50.83;99317.88;4842258;29;20292;-86
2023/08/12 01:49:56;;;;;;;3.40;1.57;;;;;;;22.59;51.00;99310.38;4841931;29;20181;-85
2023/08/12 01:52:23;;;;;;;2.00;1.10;;;;;;;22.59;50.79;99307.69;4826046;29;20193;-86
2023/08/12 01:54:50;;;;;;;2.63;1.30;;;;;;;22.62;50.85;99308.28;4842066;29;20620;-85
2023/08/12 01:57:15;;;;;;;2.33;1.30;;;;;;;22.57;50.74;99312.38;4842287;29;20204;-86
2023/08/12 01:59:43;;;;;;;3.07;1.30;;;;;;;22.50;51.15;99314.81;4841888;29;20628;-87
2023/08/12 02:02:10;;;;;;;2.87;1.23;;;;;;;22.51;51.33;99313.81;4825816;29;20185;-86
2023/08/12 02:04:37;;;;;;;3.03;1.53;;;;;;;22.52;51.24;99315.50;4843981;29;20181;-85
2023/08/12 02:07:03;;;;;;;3.00;1.43;;;;;;;22.63;51.14;99318.00;4845239;29;20201;-86
2023/08/12 02:09:30;;;;;;;3.03;1.43;;;;;;;22.69;50.51;99313.03;4828734;29;20236;-86
2023/08/12 02:11:57;;;;;;;3.67;1.23;;;;;;;22.74;50.79;99313.41;4845550;29;20196;-86
2023/08/12 02:14:24;;;;;;;3.53;1.50;;;;;;;22.80;50.58;99315.47;4845595;29;20241;-86
2023/08/12 02:16:49;;;;;;;4.93;1.67;;;;;;;22.86;50.19;99310.34;4845126;29;20204;-86
2023/08/12 02:19:15;;;;;;;2.37;1.33;;;;;;;22.93;50.21;99315.91;4845206;29;20636;-86
2023/08/12 02:21:43;;;;;;;3.70;1.40;;;;;;;22.87;51.19;99319.19;4829305;29;20177;-85
2023/08/12 02:24:10;;;;;;;2.63;1.47;;;;;;;22.72;51.27;99326.09;4845136;29;20196;-86
2023/08/12 02:26:38;;;;;;;4.47;2.07;;;;;;;22.71;50.77;99321.72;4828950;29;20213;-86
2023/08/12 02:29:03;;;;;;;3.40;1.50;;;;;;;22.65;50.44;99325.84;4845114;29;20330;-86
2023/08/12 02:31:30;;;;;;;3.47;1.67;;;;;;;22.66;50.03;99326.69;4828734;29;20272;-86
2023/08/12 02:33:57;;;;;;;7.10;1.90;;;;;;;22.67;49.81;99333.72;4845232;29;20177;-86
2023/08/12 02:36:22;;;;;;;4.03;1.70;;;;;;;22.56;50.42;99340.09;4845440;29;20268;-86
2023/08/12 02:38:49;;;;;;;3.57;1.43;;;;;;;22.52;50.50;99339.53;4844752;29;20267;-86
2023/08/12 02:41:15;;;;;;;3.07;1.47;;;;;;;22.49;51.05;99339.84;4845057;29;20568;-86
2023/08/12 02:43:42;;;;;;;2.67;1.37;;;;;;;22.39;51.12;99339.06;4844972;29;20185;-86
2023/08/12 02:46:08;;;;;;;3.57;1.87;;;;;;;22.32;51.24;99348.69;4844743;29;20271;-86
2023/08/12 02:48:36;;;;;;;2.30;1.30;;;;;;;22.27;51.81;99350.97;4828421;29;20203;-86
2023/08/12 02:51:02;;;;;;;2.43;1.40;;;;;;;22.24;51.78;99347.72;4828412;29;20215;-86
2023/08/12 02:53:28;;;;;;;2.57;1.50;;;;;;;22.22;52.34;99353.22;4844656;29;20181;-86
2023/08/12 02:55:54;;;;;;;3.03;1.63;;;;;;;22.11;52.91;99347.25;4844454;29;20193;-86
2023/08/12 02:58:20;;;;;;;3.10;1.47;;;;;;;22.03;52.89;99348.84;4828330;29;20204;-86
2023/08/12 03:00:47;;;;;;;2.80;1.63;;;;;;;22.04;52.33;99349.66;4828158;29;20273;-86
2023/08/12 03:03:14;;;;;;;2.57;1.20;;;;;;;21.99;52.69;99346.59;4828712;29;20529;-86
2023/08/12 03:05:40;;;;;;;3.03;1.70;;;;;;;21.97;52.44;99349.41;4828536;29;20177;-85
2023/08/12 03:08:07;;;;;;;3.23;1.37;;;;;;;21.92;52.68;99351.69;4844559;29;20208;-85
2023/08/12 03:10:36;;;;;;;3.80;1.63;;;;;;;21.88;53.26;99350.28;4844021;29;20235;-85
2023/08/12 03:13:03;;;;;;;3.33;1.80;;;;;;;21.87;52.99;99347.78;4844869;29;20178;-85
2023/08/12 03:15:29;;;;;;;2.17;1.20;;;;;;;21.83;53.49;99341.00;4843370;29;20482;-85
2023/08/12 03:17:56;;;;;;;2.27;1.30;;;;;;;21.81;53.38;99342.97;4844735;29;20184;-85
2023/08/12 03:20:22;;;;;;;3.03;1.53;;;;;;;21.77;53.98;99342.44;4827971;29;20181;-86
2023/08/12 03:22:48;;;;;;;3.33;1.43;;;;;;;21.80;54.33;99335.97;4843943;29;20614;-86
2023/08/12 03:25:17;;;;;;;3.73;1.40;;;;;;;21.77;54.28;99337.13;4844093;29;20272;-85
2023/08/12 03:27:44;;;;;;;2.90;1.70;;;;;;;21.74;54.25;99341.88;4844024;29;20205;-85
2023/08/12 03:30:11;;;;;;;2.20;1.27;;;;;;;21.68;54.85;99347.81;4843963;29;20189;-85
2023/08/12 03:32:38;;;;;;;2.33;1.30;;;;;;;21.63;55.42;99344.72;4844132;29;20283;-85
2023/08/12 03:35:05;;;;;;;1.60;1.20;;;;;;;21.54;56.22;99337.63;4844237;29;20184;-86
2023/08/12 03:37:31;;;;;;;3.63;1.57;;;;;;;21.37;56.58;99337.38;4827681;29;20231;-86
2023/08/12 03:39:58;;;;;;;3.87;1.90;;;;;;;21.39;56.36;99340.72;4827606;29;20182;-86
2023/08/12 03:42:25;;;;;;;2.70;1.40;;;;;;;21.38;55.95;99336.38;4843869;29;20692;-85
2023/08/12 03:44:50;;;;;;;4.83;1.70;;;;;;;21.43;55.65;99344.78;4843741;29;20200;-85
2023/08/12 03:47:21;;;;;;;4.23;1.80;;;;;;;21.48;55.33;99348.84;4843615;29;20209;-85
2023/08/12 03:49:47;;;;;;;3.93;1.73;;;;;;;21.49;55.32;99342.53;4843997;29;20168;-85
2023/08/12 03:52:13;;;;;;;3.50;1.90;;;;;;;21.51;54.98;99352.09;4843569;29;20232;-85
2023/08/12 03:54:40;;;;;;;2.70;1.50;;;;;;;21.54;54.64;99350.94;4827464;29;20620;-86
2023/08/12 03:57:06;;;;;;;3.43;1.67;;;;;;;21.58;54.65;99347.84;4843826;29;20205;-85
2023/08/12 03:59:32;;;;;;;6.20;1.73;;;;;;;21.55;55.45;99353.47;4843771;29;20185;-85
2023/08/12 04:01:59;;;;;;;3.83;1.80;;;;;;;21.57;55.56;99350.63;4843466;29;20213;-85
2023/08/12 04:04:27;;;;;;;5.13;2.37;;;;;;;21.57;55.80;99350.63;4843302;29;20189;-86
2023/08/12 04:07:04;;;;;;;3.67;1.60;;;;;;;21.51;55.76;99349.41;4827163;29;20290;-86
2023/08/12 04:09:31;;;;;;;4.67;2.00;;;;;;;21.45;56.01;99352.66;4827030;29;20365;-86
2023/08/12 04:11:57;;;;;;;7.93;3.60;;;;;;;21.44;55.78;99349.13;4843741;29;20200;-86
2023/08/12 04:14:23;;;;;;;8.00;3.43;;;;;;;21.49;55.73;99347.88;4827414;29;20208;-86
2023/08/12 04:16:49;;;;;;;9.50;3.87;;;;;;;21.41;55.74;99349.41;4827834;29;20181;-86
2023/08/12 04:19:15;;;;;;;10.10;4.00;;;;;;;21.43;56.08;99362.63;4844202;29;20197;-86
2023/08/12 04:21:40;;;;;;;7.63;3.13;;;;;;;21.44;55.87;99357.13;4843097;29;20189;-85
2023/08/12 04:24:07;;;;;;;4.77;2.37;;;;;;;21.48;55.75;99362.19;4842841;29;20648;-86
2023/08/12 04:26:34;;;;;;;5.20;2.73;;;;;;;21.54;55.91;99361.63;4842694;29;20208;-86
2023/08/12 04:29:01;;;;;;;4.60;1.97;;;;;;;21.65;55.70;99361.41;4826932;29;20288;-86
2023/08/12 04:31:28;;;;;;;4.83;2.50;;;;;;;21.74;55.45;99357.91;4842869;29;20192;-86
2023/08/12 04:33:55;;;;;;;4.87;2.63;;;;;;;21.91;55.21;99366.00;4842852;29;20571;-86
2023/08/12 04:36:21;;;;;;;6.50;2.60;;;;;;;22.06;54.86;99369.06;4843264;29;20667;-86
2023/08/12 04:38:47;;;;;;;5.53;2.50;;;;;;;22.14;54.66;99365.66;4841324;29;20257;-86
2023/08/12 04:41:14;;;;;;;5.73;2.50;;;;;;;22.15;55.69;99357.47;4826735;29;20560;-86
2023/08/12 04:43:39;;;;;;;6.70;2.23;;;;;;;22.23;55.94;99359.41;4826741;29;20569;-86
2023/08/12 04:46:06;;;;;;;5.03;2.20;;;;;;;22.37;55.78;99367.75;4842640;29;20253;-86
2023/08/12 04:48:33;;;;;;;4.13;1.90;;;;;;;22.56;55.25;99372.16;4842862;29;20232;-86
2023/08/12 04:51:01;;;;;;;3.37;1.93;;;;;;;22.73;54.21;99363.34;4842928;29;20181;-85
2023/08/12 04:53:28;;;;;;;3.10;1.60;;;;;;;22.94;53.47;99371.91;4842382;29;20551;-86
2023/08/12 04:55:56;;;;;;;2.63;1.63;;;;;;;23.17;52.28;99372.25;4843078;29;20185;-86
2023/08/12 04:58:23;;;;;;;3.87;1.60;;;;;;;23.32;52.38;99373.41;4840761;29;20248;-86
2023/08/12 05:00:52;;;;;;;4.00;1.57;;;;;;;23.45;52.41;99365.84;4842537;29;20189;-86
2023/08/12 05:03:17;;;;;;;4.70;1.43;;;;;;;23.62;52.29;99372.97;4826503;29;20189;-86
2023/08/12 05:05:43;;;;;;;2.97;1.50;;;;;;;23.91;50.56;99374.47;4842965;29;20265;-85
2023/08/12 05:08:08;;;;;;;2.60;1.57;;;;;;;24.17;50.64;99373.47;4842164;29;20205;-85
2023/08/12 05:10:34;;;;;;;2.07;1.10;;;;;;;24.38;50.19;99376.56;4830444;29;20247;-86
2023/08/12 05:12:59;;;;;;;3.57;1.63;;;;;;;24.53;49.50;99381.31;4826105;29;20196;-85
2023/08/12 05:15:26;;;;;;;4.10;1.43;;;;;;;24.64;49.42;99373.78;4842381;29;20181;-85
2023/08/12 05:17:52;;;;;;;2.13;1.40;;;;;;;24.80;48.41;99370.34;4842567;29;20246;-85
2023/08/12 05:20:18;;;;;;;3.47;1.33;;;;;;;24.81;49.39;99378.25;4841327;29;20177;-85
2023/08/12 05:22:43;;;;;;;3.70;1.70;;;;;;;24.82;48.54;99374.53;4833955;29;20621;-86
2023/08/12 05:25:10;;;;;;;3.57;1.60;;;;;;;24.86;48.02;99388.47;4837189;29;20648;-87
2023/08/12 05:27:36;;;;;;;3.17;1.50;;;;;;;24.75;47.95;99375.31;4841925;29;21049;-87
2023/08/12 05:30:03;;;;;;;3.67;1.40;;;;;;;24.93;47.47;99376.06;4841903;29;20276;-85
2023/08/12 05:32:30;;;;;;;2.17;1.47;;;;;;;25.11;47.32;99378.56;4842185;29;20605;-86
2023/08/12 05:34:56;;;;;;;3.63;1.67;;;;;;;25.25;47.17;99380.59;4842239;29;20228;-86
2023/08/12 05:37:22;;;;;;;3.53;1.40;;;;;;;25.01;46.91;99387.63;4841836;29;20190;-87
2023/08/12 05:39:48;;;;;;;2.80;1.60;;;;;;;25.08;47.75;99384.31;4828285;29;20576;-86
2023/08/12 05:42:14;;;;;;;5.20;1.77;;;;;;;25.37;47.24;99387.31;4827847;29;20427;-86
2023/08/12 05:44:44;;;;;;;4.03;1.80;;;;;;;25.52;46.21;99380.31;4823764;29;20705;-87
2023/08/12 05:47:10;;;;;;;7.23;1.87;;;;;;;25.61;46.51;99376.59;4827930;29;20219;-87
2023/08/12 05:49:36;;;;;;;3.00;1.60;;;;;;;25.61;46.41;99371.22;4828810;29;20550;-87
2023/08/12 05:52:03;;;;;;;3.03;1.67;;;;;;;25.79;45.91;99379.91;4829475;29;20216;-87
2023/08/12 05:54:30;;;;;;;3.50;1.50;;;;;;;25.81;45.65;99372.53;4827993;29;20189;-87
2023/08/12 05:56:57;;;;;;;4.40;1.70;;;;;;;25.95;45.60;99369.13;4827402;29;20189;-87
2023/08/12 05:59:22;;;;;;;4.67;1.83;;;;;;;26.07;44.96;99361.53;4828492;29;21062;-87
2023/08/12 06:01:49;;;;;;;3.20;1.60;;;;;;;26.11;44.89;99368.22;4844884;29;20318;-87
2023/08/12 06:04:16;;;;;;;2.63;1.40;;;;;;;26.24;44.28;99366.69;4828445;29;20607;-87
2023/08/12 06:06:42;;;;;;;4.83;1.70;;;;;;;26.15;44.92;99375.78;4844277;29;20266;-87
2023/08/12 06:09:09;;;;;;;8.30;1.77;;;;;;;26.15;44.49;99375.78;4841512;29;20247;-87
2023/08/12 06:11:35;;;;;;;4.27;1.83;;;;;;;26.22;44.73;99370.56;4843767;29;20545;-86
2023/08/12 06:14:02;;;;;;;3.50;1.60;;;;;;;26.05;44.08;99372.44;4845361;29;20276;-87
2023/08/12 06:16:29;;;;;;;3.00;1.57;;;;;;;25.72;45.08;99378.91;4829249;29;20188;-88
2023/08/12 06:18:54;;;;;;;2.73;1.70;;;;;;;25.72;45.11;99378.91;4843831;29;20197;-89
2023/08/12 06:21:22;;;;;;;4.50;1.50;;;;;;;25.84;44.82;99365.97;4826473;29;20193;-88
2023/08/12 06:23:49;;;;;;;3.73;1.73;;;;;;;26.03;44.85;99366.41;4828942;29;20205;-87
2023/08/12 06:26:16;;;;;;;3.40;1.60;;;;;;;26.13;45.52;99361.69;4842059;29;20225;-87
2023/08/12 06:28:41;;;;;;;4.80;1.60;;;;;;;26.55;44.91;99360.50;4845227;29;20209;-87
2023/08/12 06:31:08;;;;;;;4.23;1.70;;;;;;;26.75;43.25;99361.72;4828556;29;20618;-89
2023/08/12 06:33:34;;;;;;;4.03;1.60;;;;;;;26.94;42.72;99360.47;4828753;29;20199;-87
2023/08/12 06:36:01;;;;;;;4.17;1.80;;;;;;;27.12;43.08;99358.31;4845241;29;20177;-88
2023/08/12 06:38:28;;;;;;;2.23;1.23;;;;;;;27.37;42.02;99352.53;4829221;29;20197;-87
2023/08/12 06:40:55;;;;;;;3.67;1.77;;;;;;;27.24;41.31;99352.31;4828063;29;20193;-88
2023/08/12 06:43:20;;;;;;;4.00;1.70;;;;;;;27.73;42.25;99358.09;4834491;29;20643;-86
2023/08/12 06:45:47;;;;;;;7.73;2.27;;;;;;;27.64;40.62;99355.66;4844877;29;20628;-88
2023/08/12 06:48:19;;;;;;;3.63;1.30;;;;;;;27.65;40.79;99349.25;4845245;29;20252;-88
2023/08/12 06:50:46;;;;;;;3.73;1.77;;;;;;;27.68;40.85;99356.97;4826188;29;20300;-90
2023/08/12 06:53:13;;;;;;;3.37;1.37;;;;;;;28.01;40.50;99350.22;4839789;29;20185;-87
2023/08/12 06:55:44;;;;;;;5.47;1.98;;;;;;;28.25;39.76;99352.63;4839024;29;20644;-92
2023/08/12 06:58:14;;;;;;;3.28;1.40;;;;;;;28.49;40.68;99341.50;4840087;29;20656;-87
2023/08/12 07:00:43;;;;;;;3.70;1.58;;;;;;;28.94;39.48;99345.78;4824963;29;20674;-87
2023/08/12 07:03:10;;;;;;;2.28;1.30;;;;;;;28.58;37.98;99343.09;4844021;29;20300;-88
2023/08/12 07:05:37;;;;;;;2.63;1.40;;;;;;;29.01;38.58;99340.44;4826040;29;20212;-88
2023/08/12 07:08:04;;;;;;;5.22;1.25;;;;;;;29.20;37.54;99340.66;4810401;29;20201;-87
2023/08/12 07:10:31;;;;;;;2.35;1.20;;;;;;;29.58;38.68;99335.78;4840894;29;20197;-88
2023/08/12 07:12:58;;;;;;;3.35;1.70;;;;;;;29.59;36.38;99342.81;4823241;29;20217;-88
2023/08/12 07:15:24;;;;;;;4.68;1.00;;;;;;;29.56;36.92;99337.81;4808965;29;20270;-88
2023/08/12 07:17:51;;;;;;;3.80;1.63;;;;;;;29.99;37.13;99337.69;4823181;29;20189;-88
2023/08/12 07:20:18;;;;;;;4.43;1.35;;;;;;;30.39;35.92;99336.91;4824511;29;20182;-88
2023/08/12 07:22:45;;;;;;;2.90;1.60;;;;;;;30.65;34.48;99339.69;4827748;29;20189;-88
2023/08/12 07:25:11;;;;;;;3.05;1.45;;;;;;;30.55;33.71;99335.69;4827455;29;20272;-88
2023/08/12 07:27:37;;;;;;;3.13;1.45;;;;;;;30.46;34.68;99331.50;4843602;29;20215;-89
2023/08/12 07:30:04;;;;;;;2.55;1.38;;;;;;;30.74;33.66;99327.63;4842900;29;20185;-89
2023/08/12 07:32:31;;;;;;;3.90;1.48;;;;;;;30.78;32.45;99333.47;4840302;29;20279;-89
2023/08/12 07:34:57;;;;;;;3.03;1.25;;;;;;;30.81;32.91;99339.31;4834003;29;20196;-89
2023/08/12 07:37:23;;;;;;;8.90;1.30;;;;;;;30.90;32.94;99329.94;4839298;29;20185;-89
2023/08/12 07:39:50;;;;;;;2.28;1.00;;;;;;;30.95;32.85;99330.19;4841481;29;20208;-88
2023/08/12 07:42:17;;;;;;;2.90;0.85;;;;;;;31.29;32.18;99328.34;4841881;29;20189;-88
2023/08/12 07:44:43;;;;;;;3.30;1.23;;;;;;;31.37;32.75;99322.69;4825861;29;20614;-90
2023/08/12 07:47:09;;;;;;;4.07;1.08;;;;;;;31.69;32.01;99330.00;4841810;29;20300;-89
2023/08/12 07:49:36;;;;;;;3.40;1.20;;;;;;;31.77;31.37;99328.94;4841887;29;20548;-89
2023/08/12 07:52:03;;;;;;;3.40;0.90;;;;;;;31.76;32.07;99322.69;4825132;29;20197;-89
2023/08/12 07:54:30;;;;;;;1.95;0.90;;;;;;;31.75;30.87;99323.75;4842214;29;20601;-88
2023/08/12 07:56:55;;;;;;;4.55;1.13;;;;;;;31.93;31.45;99328.50;4841147;29;20305;-89
2023/08/12 07:59:22;;;;;;;3.30;1.35;;;;;;;32.21;31.27;99327.19;4841694;29;20185;-89
2023/08/12 08:01:49;;;;;;;4.78;1.58;;;;;;;32.20;31.31;99322.81;4840989;29;20182;-89
2023/08/12 08:04:16;;;;;;;2.92;1.20;;;;;;;32.31;31.05;99315.03;4841656;29;20244;-89
2023/08/12 08:06:42;;;;;;;4.18;1.25;;;;;;;32.60;31.25;99319.94;4841070;29;20188;-89
2023/08/12 08:09:10;;;;;;;5.32;1.60;;;;;;;32.08;30.28;99310.09;4841053;29;20698;-89
2023/08/12 08:11:37;;;;;;;3.10;1.00;;;;;;;32.21;31.57;99316.31;4827208;29;20527;-88
2023/08/12 08:14:02;;;;;;;1.80;1.00;;;;;;;32.40;30.58;99314.56;4842962;29;20185;-89
2023/08/12 08:16:29;;;;;;;2.65;1.10;;;;;;;32.51;31.56;99316.63;4842872;29;20185;-90
2023/08/12 08:18:55;;;;;;;2.97;1.25;;;;;;;32.76;31.20;99313.97;4842886;29;20216;-88
2023/08/12 08:21:21;;;;;;;2.70;1.10;;;;;;;33.17;29.57;99308.09;4842175;29;20205;-89
2023/08/12 08:23:48;;;;;;;3.65;1.35;;;;;;;33.42;30.29;99298.88;4842217;29;20192;-91
2023/08/12 08:26:15;;;;;;;2.05;1.08;;;;;;;33.54;30.00;99300.84;4842181;29;20192;-89
2023/08/12 08:28:42;;;;;;;2.67;1.33;;;;;;;33.52;30.30;99300.25;4843004;29;20204;-89
2023/08/12 08:31:09;;;;;;;3.40;1.05;;;;;;;33.77;29.28;99301.06;4843346;29;20181;-89
2023/08/12 08:33:35;;;;;;;4.65;1.58;;;;;;;33.54;29.00;99296.25;4842954;29;20193;-90
2023/08/12 08:36:02;;;;;;;3.22;1.35;;;;;;;33.68;29.05;99302.41;4826830;29;20252;-89
2023/08/12 08:38:29;;;;;;;4.15;1.52;;;;;;;33.88;29.30;99300.31;4826670;29;20563;-90
2023/08/12 08:40:57;;;;;;;2.08;1.20;;;;;;;33.94;29.73;99299.41;4826868;29;20620;-89
2023/08/12 08:43:26;;;;;;;3.97;1.58;;;;;;;33.69;29.40;99288.59;4843103;29;20185;-89
2023/08/12 08:45:53;;;;;;;5.22;1.35;;;;;;;34.10;29.58;99296.09;4843071;29;20272;-89
2023/08/12 08:48:20;;;;;;;2.22;1.10;;;;;;;34.43;27.43;99301.13;4842682;29;20295;-88
2023/08/12 08:50:48;;;;;;;3.45;1.17;;;;;;;34.04;29.08;99293.44;4826897;29;20533;-89
2023/08/12 08:53:15;;;;;;;3.03;1.15;;;;;;;34.39;28.29;99292.59;4826602;29;20599;-89
2023/08/12 08:55:43;;;;;;;3.80;0.90;;;;;;;34.14;29.05;99289.16;4826715;29;20208;-88
2023/08/12 08:58:10;;;;;;;4.10;1.30;;;;;;;34.45;27.96;99294.41;4842740;29;20210;-89
2023/08/12 09:00:37;;;;;;;1.77;1.02;;;;;;;34.83;26.65;99282.38;4842470;29;20719;-88
2023/08/12 09:03:06;;;;;;;1.95;1.02;;;;;;;34.04;27.27;99283.41;4826571;29;20189;-88
2023/08/12 09:05:35;;;;;;;3.28;1.05;;;;;;;33.74;27.30;99279.75;4826595;29;20193;-88
2023/08/12 09:08:04;;;;;;;3.22;0.98;;;;;;;34.25;28.01;99274.75;4842534;29;20205;-88
2023/08/12 09:10:32;;;;;;;3.83;1.33;;;;;;;33.98;28.35;99273.41;4826480;29;20205;-89
2023/08/12 09:12:59;;;;;;;2.33;0.90;;;;;;;34.07;28.29;99272.06;4843004;29;20184;-88
2023/08/12 09:15:26;;;;;;;2.25;1.10;;;;;;;34.50;27.06;99267.31;4809301;29;20197;-88
2023/08/12 09:17:53;;;;;;;2.75;1.20;;;;;;;34.47;27.62;99267.75;4823412;29;20189;-88
2023/08/12 09:20:18;;;;;;;1.98;0.93;;;;;;;34.32;30.09;99269.25;4824597;29;20637;-88
2023/08/12 09:22:44;;;;;;;1.35;0.85;;;;;;;34.78;27.20;99255.81;4824323;29;20186;-88
2023/08/12 09:25:10;;;;;;;3.45;1.38;;;;;;;34.74;26.71;99257.34;4824291;29;20192;-89
2023/08/12 09:27:39;;;;;;;2.63;1.20;;;;;;;35.00;26.86;99248.75;4824174;29;20676;-88
2023/08/12 09:30:06;;;;;;;1.73;0.98;;;;;;;34.48;27.61;99242.22;4824251;29;20268;-88
2023/08/12 09:32:34;;;;;;;3.38;1.15;;;;;;;34.33;27.86;99252.66;4808583;29;20197;-88
2023/08/12 09:35:02;;;;;;;3.13;1.20;;;;;;;33.80;27.92;99246.22;4824224;29;20616;-88
2023/08/12 09:37:28;;;;;;;10.02;1.50;;;;;;;34.40;27.11;99236.25;4824428;29;20192;-89
2023/08/12 09:39:56;;;;;;;3.45;1.27;;;;;;;34.67;27.60;99234.00;4808227;29;20190;-88
2023/08/12 09:42:23;;;;;;;2.58;1.25;;;;;;;34.61;27.90;99216.69;4824017;29;20189;-89
2023/08/12 09:44:50;;;;;;;5.95;1.30;;;;;;;35.19;27.26;99222.25;4824072;29;20196;-88
2023/08/12 09:47:17;;;;;;;4.65;1.58;;;;;;;35.43;27.05;99226.59;4823966;29;20269;-88
2023/08/12 09:49:44;;;;;;;2.70;1.15;;;;;;;35.21;26.40;99228.28;4818908;29;20276;-88
2023/08/12 09:52:12;;;;;;;2.53;1.23;;;;;;;34.42;27.68;99218.63;4823906;29;20185;-88
2023/08/12 09:54:40;;;;;;;2.40;0.90;;;;;;;34.80;28.26;99226.44;4807892;29;20196;-88
2023/08/12 09:57:11;;;;;;;2.65;1.30;;;;;;;34.64;26.25;99216.25;4824418;29;20526;-89
2023/08/12 09:59:41;;;;;;;2.03;1.02;;;;;;;34.71;26.53;99224.28;4823964;29;20166;-89
2023/08/12 10:02:17;;;;;;;2.70;1.08;;;;;;;35.01;26.28;99216.88;4807766;29;20182;-88
2023/08/12 10:04:45;;;;;;;2.47;1.08;;;;;;;34.93;26.54;99209.06;4837979;29;20181;-87
2023/08/12 10:07:12;;;;;;;4.25;0.90;;;;;;;35.02;26.64;99199.47;4825833;29;20549;-88
2023/08/12 10:09:39;;;;;;;2.38;1.05;;;;;;;34.58;27.69;99192.66;4841712;29;20350;-87
2023/08/12 10:12:07;;;;;;;2.58;0.95;;;;;;;35.27;26.66;99193.81;4825793;29;20189;-88
2023/08/12 10:14:34;;;;;;;4.18;1.30;;;;;;;35.22;25.75;99189.09;4825911;29;20193;-88
2023/08/12 10:16:59;;;;;;;1.92;0.90;;;;;;;35.07;26.09;99196.88;4841921;29;20181;-89
2023/08/12 10:19:27;;;;;;;3.95;1.08;;;;;;;35.06;25.87;99189.78;4841804;29;20185;-88
2023/08/12 10:21:59;;;;;;;2.08;0.95;;;;;;;34.98;25.94;99195.56;4842034;29;20190;-87
2023/08/12 10:24:27;;;;;;;2.13;0.88;;;;;;;34.61;27.39;99194.09;4842365;29;20550;-86
2023/08/12 10:26:54;;;;;;;2.88;0.80;;;;;;;34.85;26.67;99183.00;4828808;29;20208;-88
2023/08/12 10:29:23;;;;;;;5.55;1.38;;;;;;;34.99;26.76;99181.69;4845643;29;20249;-88
2023/08/12 10:31:50;;;;;;;2.13;0.90;;;;;;;35.33;25.52;99190.09;4845016;29;20217;-88
2023/08/12 10:34:25;;;;;;;3.83;1.08;;;;;;;35.41;26.11;99179.69;4845345;29;20177;-88
2023/08/12 10:37:03;;;;;;;2.65;0.80;;;;;;;34.88;25.73;99173.53;4845644;29;20166;-88
2023/08/12 10:39:34;;;;;;;2.13;0.90;;;;;;;34.57;26.20;99170.03;4828917;29;20177;-88
2023/08/12 10:42:01;;;;;;;3.38;1.10;;;;;;;34.37;25.76;99172.22;4829028;29;20273;-87
2023/08/12 10:44:40;;;;;;;1.58;0.70;;;;;;;35.08;26.16;99174.03;4828841;29;20197;-87
2023/08/12 10:47:13;;;;;;;7.43;1.05;;;;;;;34.05;26.89;99169.94;4845313;29;20192;-87
2023/08/12 10:49:45;;;;;;;2.75;0.93;;;;;;;34.12;26.33;99163.38;4845037;29;20717;-87
2023/08/12 10:52:44;;;;;;;1.75;0.65;;;;;;;34.33;26.73;99165.56;4845388;29;20165;-87
2023/08/12 10:55:24;;;;;;;2.55;0.90;;;;;;;34.33;25.35;99162.84;4821376;29;20197;-86
2023/08/12 10:57:54;;;;;;;2.40;1.08;;;;;;;34.30;26.36;99163.34;4829589;29;20176;-88
2023/08/12 11:00:29;;;;;;;1.38;0.70;;;;;;;34.39;26.88;99152.91;4844672;29;20185;-87
2023/08/12 11:02:56;;;;;;;5.95;1.10;;;;;;;34.29;26.71;99160.81;4828537;29;20192;-87
2023/08/12 11:05:24;;;;;;;1.80;0.90;;;;;;;33.60;27.39;99158.59;4828905;29;20703;-87
2023/08/12 11:08:00;;;;;;;2.15;0.77;;;;;;;33.88;26.18;99148.81;4828505;29;20209;-88
2023/08/12 11:10:30;;;;;;;2.13;0.80;;;;;;;34.47;26.36;99139.81;4845082;29;20317;-88
2023/08/12 11:12:58;;;;;;;1.33;0.65;;;;;;;34.50;26.65;99142.06;4844336;29;20220;-88
2023/08/12 11:15:49;;;;;;;3.47;0.73;;;;;;;33.85;26.11;99143.03;4844513;29;20188;-89
2023/08/12 11:18:18;;;;;;;2.97;0.90;;;;;;;33.77;27.22;99154.22;4844628;29;20172;-88
2023/08/12 11:20:48;;;;;;;1.25;0.70;;;;;;;33.98;27.22;99149.13;4844287;29;20181;-87
2023/08/12 11:23:14;;;;;;;1.27;0.60;;;;;;;33.76;27.80;99150.66;4844114;29;20344;-87
2023/08/12 11:25:44;;;;;;;2.85;1.00;;;;;;;34.00;27.07;99138.00;4844234;29;20244;-88
2023/08/12 11:28:09;;;;;;;2.00;0.88;;;;;;;33.67;27.56;99146.59;4844092;29;20269;-88
2023/08/12 11:30:36;;;;;;;3.65;1.02;;;;;;;33.49;26.77;99135.72;4844044;29;20220;-87
2023/08/12 11:33:04;;;;;;;1.55;0.60;;;;;;;33.87;27.98;99132.72;4827808;29;20208;-88
2023/08/12 11:35:29;;;;;;;2.13;0.98;;;;;;;34.49;27.29;99134.94;4827732;29;20181;-88